sensor_id;sensor_type;location;lat;lon;timestamp;pressure;altitude;pressure_sealevel;temperature;humidity
74431;BME280;62863;52.062;23.764;2023-02-28T00:01:27;1038.8;;;-0.1;56.8
74431;BME280;62863;52.062;23.764;2023-02-28T00:06:51;1038.8;;;-0.1;56.7
74431;BME280;62863;52.062;23.764;2023-02-28T00:12:05;1038.8;;;-0.1;56.7
74431;BME280;62863;52.062;23.764;2023-02-28T00:16:27;1038.8;;;-0.1;56.9
74431;BME280;62863;52.062;23.764;2023-02-28T00:22:03;1038.8;;;0;56.6
74431;BME280;62863;52.062;23.764;2023-02-28T00:26:15;1038.9;;;0;56.5
74431;BME280;62863;52.062;23.764;2023-02-28T00:31:49;1038.9;;;0;56.4
74431;BME280;62863;52.062;23.764;2023-02-28T00:37:04;1038.9;;;0;56.7
74431;BME280;62863;52.062;23.764;2023-02-28T00:42:05;1038.9;;;0;56.5
74431;BME280;62863;52.062;23.764;2023-02-28T00:46:41;1039;;;-0.1;57.3
74431;BME280;62863;52.062;23.764;2023-02-28T00:51:15;1039;;;-0.1;57
74431;BME280;62863;52.062;23.764;2023-02-28T00:56:51;1039;;;-0.1;57
74431;BME280;62863;52.062;23.764;2023-02-28T01:01:15;1039;;;-0.2;57
74431;BME280;62863;52.062;23.764;2023-02-28T01:07:05;1039;;;-0.2;57.8
74431;BME280;62863;52.062;23.764;2023-02-28T01:11:41;1039;;;-0.1;57.7
74431;BME280;62863;52.062;23.764;2023-02-28T01:16:39;1039.1;;;-0.3;57.4
74431;BME280;62863;52.062;23.764;2023-02-28T01:21:51;1039.1;;;-0.3;57.6
74431;BME280;62863;52.062;23.764;2023-02-28T01:26:29;1039.1;;;-0.2;57.9
74431;BME280;62863;52.062;23.764;2023-02-28T01:32:01;1039.1;;;-0.2;57.9
74431;BME280;62863;52.062;23.764;2023-02-28T01:36:39;1039.1;;;-0.2;58
74431;BME280;62863;52.062;23.764;2023-02-28T01:41:28;1039.2;;;-0.2;57.9
74431;BME280;62863;52.062;23.764;2023-02-28T01:46:17;1039.2;;;-0.2;57.6
74431;BME280;62863;52.062;23.764;2023-02-28T01:51:44;1039.2;;;-0.1;57.9
74431;BME280;62863;52.062;23.764;2023-02-28T01:57:04;1039.2;;;-0.1;58.2
74431;BME280;62863;52.062;23.764;2023-02-28T02:01:39;1039.3;;;-0.1;58.4
74431;BME280;62863;52.062;23.764;2023-02-28T02:06:15;1039.3;;;-0.1;58.6
74431;BME280;62863;52.062;23.764;2023-02-28T02:11:51;1039.3;;;-0.2;58.4
74431;BME280;62863;52.062;23.764;2023-02-28T02:16:42;1039.3;;;-0.3;57.7
74431;BME280;62863;52.062;23.764;2023-02-28T02:22:10;1039.3;;;-0.3;57.9
74431;BME280;62863;52.062;23.764;2023-02-28T02:26:33;1039.3;;;-0.3;57.6
74431;BME280;62863;52.062;23.764;2023-02-28T02:31:20;1039.3;;;-0.4;58.3
74431;BME280;62863;52.062;23.764;2023-02-28T02:36:26;1039.3;;;-0.4;58
74431;BME280;62863;52.062;23.764;2023-02-28T02:41:40;1039.3;;;-0.5;58.1
74431;BME280;62863;52.062;23.764;2023-02-28T02:47:06;1039.3;;;-0.4;58.2
74431;BME280;62863;52.062;23.764;2023-02-28T02:51:43;1039.4;;;-0.5;58.2
74431;BME280;62863;52.062;23.764;2023-02-28T02:56:39;1039.4;;;-0.5;57.7
74431;BME280;62863;52.062;23.764;2023-02-28T03:01:50;1039.4;;;-0.6;57.9
74431;BME280;62863;52.062;23.764;2023-02-28T03:06:27;1039.4;;;-0.6;58.7
74431;BME280;62863;52.062;23.764;2023-02-28T03:12:04;1039.4;;;-0.5;58.4
74431;BME280;62863;52.062;23.764;2023-02-28T03:16:44;1039.4;;;-0.3;58.5
74431;BME280;62863;52.062;23.764;2023-02-28T03:21:17;1039.4;;;-0.3;58.4
74431;BME280;62863;52.062;23.764;2023-02-28T03:26:52;1039.4;;;-0.2;58
74431;BME280;62863;52.062;23.764;2023-02-28T03:31:30;1039.4;;;-0.2;57.8
74431;BME280;62863;52.062;23.764;2023-02-28T03:37:01;1039.4;;;-0.2;58.1
74431;BME280;62863;52.062;23.764;2023-02-28T03:41:42;1039.4;;;-0.2;58.2
74431;BME280;62863;52.062;23.764;2023-02-28T03:46:28;1039.4;;;-0.3;58.7
74431;BME280;62863;52.062;23.764;2023-02-28T03:51:49;1039.4;;;-0.3;58.4
74431;BME280;62863;52.062;23.764;2023-02-28T03:56:16;1039.4;;;-0.2;58.4
74431;BME280;62863;52.062;23.764;2023-02-28T04:02:03;1039.3;;;-0.1;58.4
74431;BME280;62863;52.062;23.764;2023-02-28T04:06:15;1039.3;;;0;58.3
74431;BME280;62863;52.062;23.764;2023-02-28T04:11:18;1039.3;;;-0.1;58.4
74431;BME280;62863;52.062;23.764;2023-02-28T04:16:38;1039.4;;;-0.1;58.4
74431;BME280;62863;52.062;23.764;2023-02-28T04:21:15;1039.4;;;-0.3;58.5
74431;BME280;62863;52.062;23.764;2023-02-28T04:27:03;1039.4;;;-0.2;58.5
74431;BME280;62863;52.062;23.764;2023-02-28T04:31:41;1039.4;;;-0.2;58.4
74431;BME280;62863;52.062;23.764;2023-02-28T04:36:27;1039.4;;;-0.2;58.3
74431;BME280;62863;52.062;23.764;2023-02-28T04:41:51;1039.4;;;-0.2;58.2
74431;BME280;62863;52.062;23.764;2023-02-28T04:46:27;1039.5;;;-0.3;58.1
74431;BME280;62863;52.062;23.764;2023-02-28T04:52:03;1039.5;;;-0.2;58.6
74431;BME280;62863;52.062;23.764;2023-02-28T04:56:37;1039.5;;;-0.2;58.2
74431;BME280;62863;52.062;23.764;2023-02-28T05:01:17;1039.5;;;-0.2;58.3
74431;BME280;62863;52.062;23.764;2023-02-28T05:06:47;1039.6;;;-0.2;58.6
74431;BME280;62863;52.062;23.764;2023-02-28T05:11:17;1039.6;;;-0.1;58.3
74431;BME280;62863;52.062;23.764;2023-02-28T05:17:03;1039.7;;;0;58.1
74431;BME280;62863;52.062;23.764;2023-02-28T05:21:21;1039.7;;;0;58.7
74431;BME280;62863;52.062;23.764;2023-02-28T05:27:03;1039.7;;;0;58.6
74431;BME280;62863;52.062;23.764;2023-02-28T05:31:49;1039.8;;;0;58.1
74431;BME280;62863;52.062;23.764;2023-02-28T05:36:15;1039.8;;;-0.1;58.2
74431;BME280;62863;52.062;23.764;2023-02-28T05:42:01;1039.9;;;-0.1;57.4
74431;BME280;62863;52.062;23.764;2023-02-28T05:46:39;1039.9;;;0;58
74431;BME280;62863;52.062;23.764;2023-02-28T05:52:01;1040;;;0;57.6
74431;BME280;62863;52.062;23.764;2023-02-28T05:56:37;1040;;;0.1;57.6
74431;BME280;62863;52.062;23.764;2023-02-28T06:01:19;1040.1;;;0.1;57.1
74431;BME280;62863;52.062;23.764;2023-02-28T06:07:01;1040.1;;;0.1;57.3
74431;BME280;62863;52.062;23.764;2023-02-28T06:11:47;1040.2;;;0.1;57.3
74431;BME280;62863;52.062;23.764;2023-02-28T06:17:01;1040.2;;;0.2;57
74431;BME280;62863;52.062;23.764;2023-02-28T06:21:37;1040.2;;;0.3;56.9
74431;BME280;62863;52.062;23.764;2023-02-28T06:26:15;1040.2;;;0.3;56.8
74431;BME280;62863;52.062;23.764;2023-02-28T06:32:01;1040.2;;;0.4;56.6
74431;BME280;62863;52.062;23.764;2023-02-28T06:36:25;1040.1;;;0.5;56.5
74431;BME280;62863;52.062;23.764;2023-02-28T06:42:03;1040.1;;;0.5;56.5
74431;BME280;62863;52.062;23.764;2023-02-28T06:46:49;1040.1;;;0.5;57.1
74431;BME280;62863;52.062;23.764;2023-02-28T06:51:25;1040;;;0.6;57
74431;BME280;62863;52.062;23.764;2023-02-28T06:57:01;1040;;;0.6;56.6
74431;BME280;62863;52.062;23.764;2023-02-28T07:01:27;1039.9;;;0.8;56.4
74431;BME280;62863;52.062;23.764;2023-02-28T07:07:01;1039.9;;;0.8;56
74431;BME280;62863;52.062;23.764;2023-02-28T07:11:49;1039.8;;;0.9;55.7
74431;BME280;62863;52.062;23.764;2023-02-28T07:16:15;1039.9;;;1;55.7
74431;BME280;62863;52.062;23.764;2023-02-28T07:22:03;1039.8;;;1.2;55.8
74431;BME280;62863;52.062;23.764;2023-02-28T07:26:16;1039.8;;;1.4;55.5
74431;BME280;62863;52.062;23.764;2023-02-28T07:32:03;1039.8;;;1.6;55.1
74431;BME280;62863;52.062;23.764;2023-02-28T07:36:52;1039.8;;;1.7;54.8
74431;BME280;62863;52.062;23.764;2023-02-28T07:41:15;1039.8;;;1.9;54.5
74431;BME280;62863;52.062;23.764;2023-02-28T07:47:01;1039.8;;;2.1;53.9
74431;BME280;62863;52.062;23.764;2023-02-28T07:51:39;1039.8;;;2.4;53.2
74431;BME280;62863;52.062;23.764;2023-02-28T07:57:01;1039.7;;;2.5;52.5
74431;BME280;62863;52.062;23.764;2023-02-28T08:01:45;1039.6;;;2.5;51.9
74431;BME280;62863;52.062;23.764;2023-02-28T08:06:17;1039.6;;;2.8;51.6
74431;BME280;62863;52.062;23.764;2023-02-28T08:12:01;1039.6;;;3.1;51.3
74431;BME280;62863;52.062;23.764;2023-02-28T08:16:37;1039.6;;;3.4;50.8
74431;BME280;62863;52.062;23.764;2023-02-28T08:22:01;1039.6;;;3.5;50.1
74431;BME280;62863;52.062;23.764;2023-02-28T08:26:47;1039.6;;;3.7;49.9
74431;BME280;62863;52.062;23.764;2023-02-28T08:31:15;1039.5;;;3.9;49.7
74431;BME280;62863;52.062;23.764;2023-02-28T08:37:01;1039.6;;;4.1;49.1
74431;BME280;62863;52.062;23.764;2023-02-28T08:41:39;1039.7;;;4.4;48.3
74431;BME280;62863;52.062;23.764;2023-02-28T08:46:47;1039.7;;;4.6;48
74431;BME280;62863;52.062;23.764;2023-02-28T08:51:47;1039.7;;;4.8;47.4
74431;BME280;62863;52.062;23.764;2023-02-28T08:56:47;1039.7;;;5.3;46.8
74431;BME280;62863;52.062;23.764;2023-02-28T09:01:47;1039.7;;;5.6;46.2
74431;BME280;62863;52.062;23.764;2023-02-28T09:06:39;1039.6;;;5.5;46.4
74431;BME280;62863;52.062;23.764;2023-02-28T09:12:01;1039.6;;;5;46.1
74431;BME280;62863;52.062;23.764;2023-02-28T09:16:45;1039.7;;;4.6;46.4
74431;BME280;62863;52.062;23.764;2023-02-28T09:21:27;1039.7;;;4.4;46.5
74431;BME280;62863;52.062;23.764;2023-02-28T09:26:47;1039.7;;;4.8;46.4
74431;BME280;62863;52.062;23.764;2023-02-28T09:31:39;1039.7;;;5.3;46.1
74431;BME280;62863;52.062;23.764;2023-02-28T09:37:01;1039.7;;;6;46.1
74431;BME280;62863;52.062;23.764;2023-02-28T09:41:48;1039.7;;;6;44.6
74431;BME280;62863;52.062;23.764;2023-02-28T09:46:36;1039.7;;;5.7;45.3
74431;BME280;62863;52.062;23.764;2023-02-28T09:51:47;1039.7;;;5.3;45.4
74431;BME280;62863;52.062;23.764;2023-02-28T09:56:28;1039.8;;;5.1;45.3
74431;BME280;62863;52.062;23.764;2023-02-28T10:02:03;1039.8;;;5.9;45.1
74431;BME280;62863;52.062;23.764;2023-02-28T10:06:48;1039.7;;;6.7;43.3
74431;BME280;62863;52.062;23.764;2023-02-28T10:11:39;1039.8;;;7.1;43
74431;BME280;62863;52.062;23.764;2023-02-28T10:16:50;1039.8;;;7.5;42.6
74431;BME280;62863;52.062;23.764;2023-02-28T10:21:38;1039.8;;;7.2;42.7
74431;BME280;62863;52.062;23.764;2023-02-28T10:27:00;1039.8;;;7.2;42.3
74431;BME280;62863;52.062;23.764;2023-02-28T10:31:49;1039.8;;;7;42.3
74431;BME280;62863;52.062;23.764;2023-02-28T10:36:37;1039.8;;;6.5;43.6
74431;BME280;62863;52.062;23.764;2023-02-28T10:41:49;1039.8;;;6.1;44.1
74431;BME280;62863;52.062;23.764;2023-02-28T10:46:27;1039.7;;;5.9;43.8
74431;BME280;62863;52.062;23.764;2023-02-28T10:52:01;1039.7;;;6.1;43.3
74431;BME280;62863;52.062;23.764;2023-02-28T10:56:25;1039.6;;;6.6;42.4
74431;BME280;62863;52.062;23.764;2023-02-28T11:01:34;1039.6;;;6.8;42.9
74431;BME280;62863;52.062;23.764;2023-02-28T11:06:47;1039.5;;;7;42.5
74431;BME280;62863;52.062;23.764;2023-02-28T11:11:41;1039.4;;;7;42.6
74431;BME280;62863;52.062;23.764;2023-02-28T11:16:47;1039.4;;;7.4;41.9
74431;BME280;62863;52.062;23.764;2023-02-28T11:21:48;1039.3;;;7.3;41.5
74431;BME280;62863;52.062;23.764;2023-02-28T11:26:41;1039.3;;;7.2;41.4
74431;BME280;62863;52.062;23.764;2023-02-28T11:32:07;1039.2;;;7.2;41.3
74431;BME280;62863;52.062;23.764;2023-02-28T11:36:41;1039.1;;;6.6;41.5
74431;BME280;62863;52.062;23.764;2023-02-28T11:42:05;1039;;;6.6;42.3
74431;BME280;62863;52.062;23.764;2023-02-28T11:46:20;1039;;;6.7;42.1
74431;BME280;62863;52.062;23.764;2023-02-28T11:51:17;1038.9;;;6.7;42.1
74431;BME280;62863;52.062;23.764;2023-02-28T11:56:50;1038.9;;;6.7;42.1
74431;BME280;62863;52.062;23.764;2023-02-28T12:01:19;1038.9;;;6.8;41.9
74431;BME280;62863;52.062;23.764;2023-02-28T12:07:00;1038.9;;;6.9;42.2
74431;BME280;62863;52.062;23.764;2023-02-28T12:11:51;1038.9;;;6.8;42.2
74431;BME280;62863;52.062;23.764;2023-02-28T12:16:42;1038.9;;;6.6;42.2
74431;BME280;62863;52.062;23.764;2023-02-28T12:21:58;1038.8;;;6.6;42.2
74431;BME280;62863;52.062;23.764;2023-02-28T12:26:51;1038.7;;;6.5;41.7
74431;BME280;62863;52.062;23.764;2023-02-28T12:32:04;1038.7;;;6.6;41.9
74431;BME280;62863;52.062;23.764;2023-02-28T12:36:51;1038.6;;;6.7;41.9
74431;BME280;62863;52.062;23.764;2023-02-28T12:41:16;1038.6;;;6.5;42.1
74431;BME280;62863;52.062;23.764;2023-02-28T12:46:51;1038.5;;;6.5;42
74431;BME280;62863;52.062;23.764;2023-02-28T12:51:51;1038.5;;;6.6;42.2
74431;BME280;62863;52.062;23.764;2023-02-28T12:57:06;1038.5;;;6.5;41.5
74431;BME280;62863;52.062;23.764;2023-02-28T13:01:22;1038.5;;;6.4;41.8
74431;BME280;62863;52.062;23.764;2023-02-28T13:06:59;1038.5;;;6.4;42
74431;BME280;62863;52.062;23.764;2023-02-28T13:12:06;1038.5;;;6.4;42.4
74431;BME280;62863;52.062;23.764;2023-02-28T13:16:48;1038.3;;;6.4;42.4
74431;BME280;62863;52.062;23.764;2023-02-28T13:21:47;1038.1;;;6.4;42.7
74431;BME280;62863;52.062;23.764;2023-02-28T13:27:45;1038.1;;;6.3;42.9
74431;BME280;62863;52.062;23.764;2023-02-28T13:31:15;1038;;;6.3;43
74431;BME280;62863;52.062;23.764;2023-02-28T13:37:36;1037.9;;;6.4;43.1
74431;BME280;62863;52.062;23.764;2023-02-28T13:41:46;1037.9;;;6.5;43
74431;BME280;62863;52.062;23.764;2023-02-28T13:47:55;1037.8;;;6.4;42.5
74431;BME280;62863;52.062;23.764;2023-02-28T13:51:42;1037.7;;;6.3;42.9
74431;BME280;62863;52.062;23.764;2023-02-28T13:56:30;1037.7;;;6.1;42.8
74431;BME280;62863;52.062;23.764;2023-02-28T14:02:11;1037.7;;;5.9;42.9
74431;BME280;62863;52.062;23.764;2023-02-28T14:06:27;1037.6;;;5.9;43
74431;BME280;62863;52.062;23.764;2023-02-28T14:11:26;1037.5;;;5.8;43.1
74431;BME280;62863;52.062;23.764;2023-02-28T14:16:43;1037.5;;;5.6;43.5
74431;BME280;62863;52.062;23.764;2023-02-28T14:21:26;1037.5;;;5.3;44.3
74431;BME280;62863;52.062;23.764;2023-02-28T14:27:11;1037.5;;;5.1;44.7
74431;BME280;62863;52.062;23.764;2023-02-28T14:31:28;1037.4;;;5.1;45.2
74431;BME280;62863;52.062;23.764;2023-02-28T14:36:49;1037.3;;;5.2;45.1
74431;BME280;62863;52.062;23.764;2023-02-28T14:41:29;1037.3;;;5.1;45.5
74431;BME280;62863;52.062;23.764;2023-02-28T14:46:28;1037.3;;;5;45.5
74431;BME280;62863;52.062;23.764;2023-02-28T14:52:02;1037.2;;;4.8;45.6
74431;BME280;62863;52.062;23.764;2023-02-28T14:56:26;1037.2;;;4.5;46.2
74431;BME280;62863;52.062;23.764;2023-02-28T15:01:47;1037.2;;;4.4;46.4
74431;BME280;62863;52.062;23.764;2023-02-28T15:06:39;1037.2;;;4.1;47.3
74431;BME280;62863;52.062;23.764;2023-02-28T15:11:39;1037.2;;;4;47.8
74431;BME280;62863;52.062;23.764;2023-02-28T15:17:05;1037.1;;;3.9;48.1
74431;BME280;62863;52.062;23.764;2023-02-28T15:21:16;1037.2;;;3.6;48.6
74431;BME280;62863;52.062;23.764;2023-02-28T15:26:50;1037.3;;;3.3;49
74431;BME280;62863;52.062;23.764;2023-02-28T15:31:19;1037.2;;;3;49.6
74431;BME280;62863;52.062;23.764;2023-02-28T15:36:28;1037.2;;;2.7;50.4
74431;BME280;62863;52.062;23.764;2023-02-28T15:42:11;1037.3;;;2.4;51.1
74431;BME280;62863;52.062;23.764;2023-02-28T15:46:29;1037.3;;;2.2;51.9
74431;BME280;62863;52.062;23.764;2023-02-28T15:51:49;1037.2;;;2;52.7
74431;BME280;62863;52.062;23.764;2023-02-28T15:56:42;1037.2;;;1.7;53.4
74431;BME280;62863;52.062;23.764;2023-02-28T16:01:17;1037.2;;;1.4;54.5
74431;BME280;62863;52.062;23.764;2023-02-28T16:07:04;1037.2;;;1.2;55.1
74431;BME280;62863;52.062;23.764;2023-02-28T16:11:50;1037.1;;;1;55.7
74431;BME280;62863;52.062;23.764;2023-02-28T16:16:50;1037.2;;;0.8;56.2
74431;BME280;62863;52.062;23.764;2023-02-28T16:21:15;1037.2;;;0.6;56.4
74431;BME280;62863;52.062;23.764;2023-02-28T16:26:27;1037.3;;;0.4;57.1
74431;BME280;62863;52.062;23.764;2023-02-28T16:32:04;1037.3;;;0.3;57
74431;BME280;62863;52.062;23.764;2023-02-28T16:36:39;1037.4;;;0.2;57.6
74431;BME280;62863;52.062;23.764;2023-02-28T16:41:48;1037.4;;;0.1;58
74431;BME280;62863;52.062;23.764;2023-02-28T16:46:15;1037.4;;;0;58.7
74431;BME280;62863;52.062;23.764;2023-02-28T16:51:27;1037.5;;;0;59.3
74431;BME280;62863;52.062;23.764;2023-02-28T16:57:04;1037.7;;;-0.1;59.9
74431;BME280;62863;52.062;23.764;2023-02-28T17:01:41;1037.7;;;-0.2;59.3
74431;BME280;62863;52.062;23.764;2023-02-28T17:06:49;1037.6;;;-0.3;60.1
74431;BME280;62863;52.062;23.764;2023-02-28T17:11:41;1037.7;;;-0.3;60.8
74431;BME280;62863;52.062;23.764;2023-02-28T17:16:30;1037.6;;;-0.4;60.1
74431;BME280;62863;52.062;23.764;2023-02-28T17:21:37;1037.5;;;-0.4;60.3
74431;BME280;62863;52.062;23.764;2023-02-28T17:26:29;1037.4;;;-0.4;60.3
74431;BME280;62863;52.062;23.764;2023-02-28T17:32:03;1037.4;;;-0.5;60.6
74431;BME280;62863;52.062;23.764;2023-02-28T17:37:03;1037.3;;;-0.5;61
74431;BME280;62863;52.062;23.764;2023-02-28T17:41:15;1037.2;;;-0.6;61.4
74431;BME280;62863;52.062;23.764;2023-02-28T17:46:27;1037.1;;;-0.8;61.9
74431;BME280;62863;52.062;23.764;2023-02-28T17:51:16;1037;;;-0.9;62.8
74431;BME280;62863;52.062;23.764;2023-02-28T17:57:03;1037;;;-0.9;63
74431;BME280;62863;52.062;23.764;2023-02-28T18:01:51;1036.9;;;-1;63.3
74431;BME280;62863;52.062;23.764;2023-02-28T18:06:31;1037;;;-1.1;63.3
74431;BME280;62863;52.062;23.764;2023-02-28T18:11:35;1036.9;;;-1.1;63.1
74431;BME280;62863;52.062;23.764;2023-02-28T18:16:29;1036.8;;;-1.2;63.8
74431;BME280;62863;52.062;23.764;2023-02-28T18:22:01;1036.8;;;-1.2;63.8
74431;BME280;62863;52.062;23.764;2023-02-28T18:26:42;1036.9;;;-1.2;63.4
74431;BME280;62863;52.062;23.764;2023-02-28T18:31:16;1036.9;;;-1.2;63.3
74431;BME280;62863;52.062;23.764;2023-02-28T18:36:37;1037;;;-1.2;63.4
74431;BME280;62863;52.062;23.764;2023-02-28T18:41:37;1037;;;-1.2;63.4
74431;BME280;62863;52.062;23.764;2023-02-28T18:47:04;1037;;;-1.2;63.7
74431;BME280;62863;52.062;23.764;2023-02-28T18:51:53;1037;;;-1.2;64.5
74431;BME280;62863;52.062;23.764;2023-02-28T18:56:16;1037.1;;;-1.2;64.5
74431;BME280;62863;52.062;23.764;2023-02-28T19:01:35;1037.1;;;-1.3;64.3
74431;BME280;62863;52.062;23.764;2023-02-28T19:06:37;1037.2;;;-1.3;64.6
74431;BME280;62863;52.062;23.764;2023-02-28T19:12:03;1037.3;;;-1.3;64.5
74431;BME280;62863;52.062;23.764;2023-02-28T19:16:53;1037.3;;;-1.3;64.2
74431;BME280;62863;52.062;23.764;2023-02-28T19:21:16;1037.3;;;-1.3;64.4
74431;BME280;62863;52.062;23.764;2023-02-28T19:26:27;1037.3;;;-1.3;64.5
74431;BME280;62863;52.062;23.764;2023-02-28T19:31:16;1037.3;;;-1.3;64.4
74431;BME280;62863;52.062;23.764;2023-02-28T19:37:03;1037.3;;;-1.4;64.4
74431;BME280;62863;52.062;23.764;2023-02-28T19:41:53;1037.3;;;-1.4;64.6
74431;BME280;62863;52.062;23.764;2023-02-28T19:46:37;1037.2;;;-1.4;65.1
74431;BME280;62863;52.062;23.764;2023-02-28T19:51:37;1037.2;;;-1.4;65.5
74431;BME280;62863;52.062;23.764;2023-02-28T19:56:15;1037.2;;;-1.4;65.3
74431;BME280;62863;52.062;23.764;2023-02-28T20:02:01;1037.1;;;-1.4;65.3
74431;BME280;62863;52.062;23.764;2023-02-28T20:06:53;1037.1;;;-1.4;65.3
74431;BME280;62863;52.062;23.764;2023-02-28T20:11:29;1037.2;;;-1.4;65.4
74431;BME280;62863;52.062;23.764;2023-02-28T20:16:51;1037.2;;;-1.4;65.7
74431;BME280;62863;52.062;23.764;2023-02-28T20:21:27;1037.2;;;-1.4;65.9
74431;BME280;62863;52.062;23.764;2023-02-28T20:27:01;1037.1;;;-1.4;66.1
74431;BME280;62863;52.062;23.764;2023-02-28T20:31:53;1037;;;-1.5;66.4
74431;BME280;62863;52.062;23.764;2023-02-28T20:36:23;1037;;;-1.6;66.2
74431;BME280;62863;52.062;23.764;2023-02-28T20:41:37;1036.9;;;-1.7;66.3
74431;BME280;62863;52.062;23.764;2023-02-28T20:46:15;1036.9;;;-1.8;66.7
74431;BME280;62863;52.062;23.764;2023-02-28T20:52:03;1036.8;;;-1.8;66.8
74431;BME280;62863;52.062;23.764;2023-02-28T20:56:51;1036.8;;;-1.8;66.9
74431;BME280;62863;52.062;23.764;2023-02-28T21:01:29;1036.7;;;-1.9;67.1
74431;BME280;62863;52.062;23.764;2023-02-28T21:06:38;1036.7;;;-2;67.6
74431;BME280;62863;52.062;23.764;2023-02-28T21:11:28;1036.6;;;-2;67.6
74431;BME280;62863;52.062;23.764;2023-02-28T21:17:03;1036.6;;;-2.1;67.6
74431;BME280;62863;52.062;23.764;2023-02-28T21:21:54;1036.6;;;-2.1;67.7
74431;BME280;62863;52.062;23.764;2023-02-28T21:27:01;1036.6;;;-2;67.7
74431;BME280;62863;52.062;23.764;2023-02-28T21:31:37;1036.5;;;-2;67.6
74431;BME280;62863;52.062;23.764;2023-02-28T21:36:28;1036.5;;;-1.9;67.9
74431;BME280;62863;52.062;23.764;2023-02-28T21:42:03;1036.5;;;-1.9;68
74431;BME280;62863;52.062;23.764;2023-02-28T21:46:51;1036.4;;;-1.9;67.4
74431;BME280;62863;52.062;23.764;2023-02-28T21:52:03;1036.4;;;-1.9;67.5
74431;BME280;62863;52.062;23.764;2023-02-28T21:56:37;1036.3;;;-1.9;67.8
74431;BME280;62863;52.062;23.764;2023-02-28T22:01:36;1036.3;;;-2;68.2
74431;BME280;62863;52.062;23.764;2023-02-28T22:07:03;1036.3;;;-2;68.6
74431;BME280;62863;52.062;23.764;2023-02-28T22:11:53;1036.3;;;-2.1;68.6
74431;BME280;62863;52.062;23.764;2023-02-28T22:17:01;1036.2;;;-2.1;68.9
74431;BME280;62863;52.062;23.764;2023-02-28T22:21:16;1036.1;;;-2.1;69.1
74431;BME280;62863;52.062;23.764;2023-02-28T22:26:16;1036.1;;;-2.1;69.2
74431;BME280;62863;52.062;23.764;2023-02-28T22:32:06;1036.1;;;-2.1;69.1
74431;BME280;62863;52.062;23.764;2023-02-28T22:36:53;1036.2;;;-2.1;69
74431;BME280;62863;52.062;23.764;2023-02-28T22:42:01;1036.3;;;-2.1;69
74431;BME280;62863;52.062;23.764;2023-02-28T22:46:24;1036.2;;;-2.1;68.8
74431;BME280;62863;52.062;23.764;2023-02-28T22:51:16;1036.2;;;-2.1;68.5
74431;BME280;62863;52.062;23.764;2023-02-28T22:56:59;1036.3;;;-2;68.3
74431;BME280;62863;52.062;23.764;2023-02-28T23:01:32;1036.4;;;-2;68.1
74431;BME280;62863;52.062;23.764;2023-02-28T23:07:03;1036.4;;;-1.9;68.2
74431;BME280;62863;52.062;23.764;2023-02-28T23:11:16;1036.3;;;-1.9;68
74431;BME280;62863;52.062;23.764;2023-02-28T23:16:28;1036.2;;;-2;68.5
74431;BME280;62863;52.062;23.764;2023-02-28T23:22:02;1036.2;;;-2;68.4
74431;BME280;62863;52.062;23.764;2023-02-28T23:26:50;1036.2;;;-1.9;68.7
74431;BME280;62863;52.062;23.764;2023-02-28T23:31:47;1036.2;;;-1.9;67.9
74431;BME280;62863;52.062;23.764;2023-02-28T23:36:36;1036.2;;;-1.9;68.3
74431;BME280;62863;52.062;23.764;2023-02-28T23:41:27;1036.3;;;-1.9;68.3
74431;BME280;62863;52.062;23.764;2023-02-28T23:46:59;1036.2;;;-1.8;68.6
74431;BME280;62863;52.062;23.764;2023-02-28T23:51:49;1036.2;;;-1.8;68.7
74431;BME280;62863;52.062;23.764;2023-02-28T23:56:59;1036.2;;;-1.8;68.8
